Chongqing, China
Current Conditions -  °F | °C
As of 12:00 PM on Tuesday 23 Dec 2014 (Local Time) from ZUCK Reporting Station
Haze Haze  
Wind Chill: 46°   Ceiling: Unl
Heat Index: 48°   Visibility: 1.7mi
Dew Point: 37°   Wind: 4mph
Humidity: 66%   Direction: 240°WSW
Pressure: 30.24"   Gusts: NA
Location:  29.57°N, 106.58°E
Report Text: ZUCK 230400Z 24002MPS 160V280 2800 HZ SCT020 09/03 Q1024 BECMGTL05303500
Loading
Personal Weather Stations






























Interactive Weather Map New forecast layout! Learn more

10-Day Weather Forecast

Advertisements
Track Severe Weather on mobile